Old Blue — WDB9712 — position and weather

sailwx.info

Track history (hours):
 
Tides and Currents Weather Stations Pressure Air Temp Water Temp Dewpoint Dewpoint Depression Visibility Wind Speed Wind Dir Waves Ship Positions

Old Blue

Owner: Blue and Gold Fleet, San Francisco, CA. More information available from US FCC via Universal Licensing System and Coast Guard Vessel Documentation Center.

Last reported at 2018-Jun-21 02:01 UTC. Time now 2018-Jun-21 04:43 UTC.
Position N 37°49' W 122°25'.

Length 24 m; draft 3 m.

Type: Passenger vessel. MMSI: 366981360.

Date/timePositionNaut miles runAvg speedWind from/ knotsBaromVisibWave heightAir tempDewpointWater temp
2018-Jun-21 02:01N 37°49' W 122°25'0 0.0
2018-Jun-21 01:59N 37°49' W 122°25'3 5.8
2018-Jun-21 01:31N 37°49' W 122°28'3 5.6
2018-Jun-21 01:01N 37°49' W 122°25'1 1.5
2018-Jun-21 00:31N 37°49' W 122°24'2 3.4
2018-Jun-21 00:00N 37°49' W 122°27'2 3.0
2018-Jun-20 23:30N 37°49' W 122°25'0 0.0
2018-Jun-20 23:00N 37°49' W 122°25'3 6.2
2018-Jun-20 22:30N 37°49' W 122°28'3 6.2
2018-Jun-20 22:00N 37°49' W 122°25'0 0.0
2018-Jun-20 21:29N 37°49' W 122°25'0 0.0
2018-Jun-20 20:58N 37°49' W 122°25'3 5.4
2018-Jun-20 20:30N 37°49' W 122°28'3 5.1
2018-Jun-20 20:00N 37°49' W 122°25'1 1.2
2018-Jun-20 19:30N 37°49' W 122°24'2 3.8
2018-Jun-20 19:00N 37°50' W 122°26'2 3.1
2018-Jun-20 18:30N 37°49' W 122°27'2 3.5
2018-Jun-20 17:59N 37°49' W 122°25'0 0.0
2018-Jun-20 02:54N 37°49' W 122°25'2 5.4
2018-Jun-20 02:30N 37°49' W 122°27'2 3.9
2018-Jun-20 01:58N 37°49' W 122°25'0 0.0
2018-Jun-20 01:29N 37°49' W 122°25'3 5.2
2018-Jun-20 01:00N 37°50' W 122°28'3 5.0
2018-Jun-20 00:30N 37°49' W 122°25'0 1.0
2018-Jun-20 00:00N 37°49' W 122°24'2 3.8
2018-Jun-19 23:30N 37°49' W 122°27'2 3.3
2018-Jun-19 22:58N 37°49' W 122°25'0 0.0
2018-Jun-19 22:29N 37°49' W 122°25'1 1.5
2018-Jun-19 22:00N 37°48' W 122°24'2 3.1
2018-Jun-19 21:30N 37°49' W 122°25'1 2.6
2018-Jun-19 21:00N 37°49' W 122°27'2 3.2
2018-Jun-19 20:28N 37°49' W 122°25'0 0.0
2018-Jun-19 19:58N 37°49' W 122°25'2 4.5
2018-Jun-19 19:30N 37°50' W 122°27'2 4.1
2018-Jun-19 18:59N 37°49' W 122°25'1 1.2
2018-Jun-19 18:31N 37°49' W 122°25'2 4.6
2018-Jun-19 18:01N 37°49' W 122°27'2 4.3
2018-Jun-19 17:29N 37°49' W 122°25'0 0.0
2018-Jun-19 17:00N 37°49' W 122°25'0 0.0
2018-Jun-19 02:31N 37°49' W 122°25'0 0.0
2018-Jun-19 02:30N 37°49' W 122°25'2 4.7
2018-Jun-19 02:00N 37°49' W 122°27'2 4.6
2018-Jun-19 01:30N 37°49' W 122°25'0 0.0
2018-Jun-19 01:00N 37°49' W 122°25'0 0.0
2018-Jun-19 00:29N 37°49' W 122°25'1 1.6
2018-Jun-19 00:00N 37°48' W 122°24'2 3.5
2018-Jun-18 23:30N 37°50' W 122°25'1 2.9
2018-Jun-18 23:00N 37°49' W 122°27'2 3.5
2018-Jun-18 22:30N 37°49' W 122°25'3 6.4
2018-Jun-18 22:00N 37°49' W 122°29'3 6.0
2018-Jun-18 21:29N 37°49' W 122°25'0 0.0
2018-Jun-18 20:59N 37°49' W 122°25'0 0.0
2018-Jun-18 20:29N 37°49' W 122°25'3 5.7
2018-Jun-18 20:00N 37°49' W 122°28'3 5.4
2018-Jun-18 19:30N 37°49' W 122°25'0 0.0
2018-Jun-18 02:40N 37°49' W 122°25'0 0.1
2018-Jun-18 02:30N 37°49' W 122°25'2 4.4
2018-Jun-18 02:00N 37°49' W 122°27'2 4.5
2018-Jun-18 01:30N 37°49' W 122°25'0 0.0
2018-Jun-18 01:00N 37°49' W 122°25'0 0.0
2018-Jun-18 00:31N 37°49' W 122°25'1 1.0
2018-Jun-18 00:01N 37°49' W 122°24'1 2.3
2018-Jun-17 23:31N 37°49' W 122°25'1 2.7
2018-Jun-17 23:00N 37°49' W 122°27'2 3.3
2018-Jun-17 22:30N 37°49' W 122°25'3 6.2
2018-Jun-17 22:00N 37°49' W 122°28'3 6.3
2018-Jun-17 21:30N 37°49' W 122°25'0 0.0
2018-Jun-17 21:01N 37°49' W 122°25'0 0.0
2018-Jun-17 20:31N 37°49' W 122°25'3 5.6
2018-Jun-17 20:00N 37°49' W 122°28'3 5.6
2018-Jun-17 19:30N 37°49' W 122°25'0 0.0
2018-Jun-17 19:00N 37°49' W 122°25'0 0.0
2018-Jun-17 02:59N 37°49' W 122°25'2 4.8
2018-Jun-17 02:30N 37°49' W 122°27'2 4.7
2018-Jun-17 02:00N 37°49' W 122°25'0 0.0
2018-Jun-17 01:30N 37°49' W 122°25'3 5.3
2018-Jun-17 01:00N 37°49' W 122°28'3 5.4
2018-Jun-17 00:30N 37°49' W 122°25'1 1.8
2018-Jun-17 00:00N 37°49' W 122°25'1 2.7
2018-Jun-16 23:30N 37°49' W 122°27'2 3.5
2018-Jun-16 23:01N 37°49' W 122°25'0 0.0
2018-Jun-16 22:30N 37°49' W 122°25'1 1.1
2018-Jun-16 22:01N 37°49' W 122°24'1 2.5
2018-Jun-16 21:30N 37°50' W 122°25'1 2.1
2018-Jun-16 21:00N 37°49' W 122°26'2 3.0
2018-Jun-16 20:30N 37°49' W 122°25'0 0.0
2018-Jun-16 20:00N 37°49' W 122°25'3 6.4
2018-Jun-16 19:30N 37°49' W 122°29'3 6.4
2018-Jun-16 19:00N 37°49' W 122°25'1 2.1
2018-Jun-16 18:30N 37°50' W 122°25'2 3.1
2018-Jun-16 18:00N 37°49' W 122°27'2 3.1
2018-Jun-16 17:30N 37°49' W 122°25'0 0.0
2018-Jun-16 02:25N 37°49' W 122°25'2 5.6
2018-Jun-16 02:00N 37°50' W 122°27'2 4.5
2018-Jun-16 01:29N 37°49' W 122°25'0 0.0
2018-Jun-16 01:00N 37°49' W 122°25'0 0.0
2018-Jun-16 00:28N 37°49' W 122°25'1 1.6
2018-Jun-16 00:00N 37°48' W 122°24'2 3.7
2018-Jun-15 23:30N 37°50' W 122°25'1 2.4
2018-Jun-15 23:00N 37°49' W 122°27'2 3.2
2018-Jun-15 22:30N 37°49' W 122°25'3 5.8
2018-Jun-15 22:00N 37°49' W 122°28'3 5.6
2018-Jun-15 21:30N 37°49' W 122°25'0 0.0
2018-Jun-15 21:00N 37°49' W 122°25'0 0.0
2018-Jun-15 20:28N 37°49' W 122°25'3 6.9
2018-Jun-15 20:00N 37°49' W 122°29'3 6.0
2018-Jun-15 19:29N 37°49' W 122°25'0 0.0
2018-Jun-15 01:59N 37°49' W 122°25'2 5.0
2018-Jun-15 01:30N 37°50' W 122°27'2 4.1
2018-Jun-15 00:56N 37°49' W 122°25'1 2.4
2018-Jun-15 00:30N 37°50' W 122°25'2 4.2
2018-Jun-15 00:01N 37°49' W 122°27'2 4.0
2018-Jun-14 23:29N 37°49' W 122°25'0 0.0
2018-Jun-14 22:58N 37°49' W 122°25'2 5.2
2018-Jun-14 22:30N 37°50' W 122°27'2 4.5
2018-Jun-14 21:58N 37°49' W 122°25'0 0.0
2018-Jun-14 21:30N 37°49' W 122°25'0 0.0
2018-Jun-14 21:00N 37°49' W 122°25'3 6.4
2018-Jun-14 20:30N 37°49' W 122°29'3 6.2
2018-Jun-14 19:59N 37°49' W 122°25'1 1.1
2018-Jun-14 19:30N 37°49' W 122°24'2 3.5
2018-Jun-14 19:00N 37°50' W 122°25'2 3.2
2018-Jun-14 18:30N 37°49' W 122°27'2 2.9
2018-Jun-14 17:58N 37°49' W 122°25'0 0.0
2018-Jun-14 17:28N 37°49' W 122°25'0 0.0
2018-Jun-14 16:59N 37°49' W 122°25'0 0.0
2018-Jun-14 16:29N 37°49' W 122°25'0 0.0
2018-Jun-14 15:58N 37°49' W 122°25'0 0.0
2018-Jun-14 15:28N 37°49' W 122°25'0 0.0
2018-Jun-14 02:54N 37°49' W 122°25'2 6.3
2018-Jun-14 02:30N 37°49' W 122°28'2 4.7
2018-Jun-14 01:59N 37°49' W 122°25'0 0.0
2018-Jun-14 01:30N 37°49' W 122°25'2 3.8
2018-Jun-14 01:00N 37°50' W 122°27'2 3.8
2018-Jun-14 00:30N 37°49' W 122°25'0 0.9
2018-Jun-14 00:00N 37°49' W 122°24'2 4.9
2018-Jun-13 23:30N 37°49' W 122°27'2 4.5
2018-Jun-13 23:00N 37°49' W 122°25'0 0.0
2018-Jun-13 22:30N 37°49' W 122°25'1 1.1
2018-Jun-13 22:00N 37°48' W 122°24'2 3.0
2018-Jun-13 21:30N 37°49' W 122°25'2 3.1
2018-Jun-13 21:00N 37°49' W 122°27'2 4.3
2018-Jun-13 20:30N 37°49' W 122°25'0 0.0
2018-Jun-13 20:00N 37°49' W 122°25'2 4.8
2018-Jun-13 19:30N 37°49' W 122°27'2 4.6
2018-Jun-13 19:00N 37°49' W 122°25'1 1.3
2018-Jun-13 18:31N 37°49' W 122°25'1 3.0
2018-Jun-13 18:00N 37°49' W 122°27'2 3.2
2018-Jun-13 17:31N 37°49' W 122°25'0 0.0
2018-Jun-13 02:09N 37°49' W 122°25'0 0.0
2018-Jun-13 02:00N 37°49' W 122°25'3 5.3
2018-Jun-13 01:30N 37°49' W 122°28'3 5.4
2018-Jun-13 01:00N 37°49' W 122°25'0 0.2
2018-Jun-13 00:30N 37°49' W 122°25'2 3.4
2018-Jun-13 00:00N 37°50' W 122°26'1 2.1
2018-Jun-12 23:30N 37°49' W 122°25'1 1.5
2018-Jun-12 23:00N 37°49' W 122°25'2 4.9
2018-Jun-12 22:30N 37°50' W 122°27'2 4.8
2018-Jun-12 22:00N 37°49' W 122°25'0 0.0
2018-Jun-12 21:30N 37°49' W 122°25'0 0.0
2018-Jun-12 20:59N 37°49' W 122°25'2 5.1
2018-Jun-12 20:30N 37°50' W 122°28'2 4.7
2018-Jun-12 19:59N 37°49' W 122°25'1 1.7
2018-Jun-12 19:30N 37°48' W 122°24'2 3.5
2018-Jun-12 19:00N 37°50' W 122°25'1 2.7
2018-Jun-12 18:30N 37°49' W 122°27'2 3.6
2018-Jun-12 18:00N 37°49' W 122°25'0 0.0
2018-Jun-12 02:14N 37°49' W 122°25'0 0.2
2018-Jun-12 02:01N 37°49' W 122°25'3 6.1
2018-Jun-12 01:31N 37°49' W 122°28'3 6.0
2018-Jun-12 01:00N 37°49' W 122°25'1 2.8
2018-Jun-12 00:31N 37°50' W 122°25'1 2.7
2018-Jun-12 00:00N 37°49' W 122°27'1 3.0
2018-Jun-11 23:30N 37°49' W 122°25'0 0.0
2018-Jun-11 23:00N 37°49' W 122°25'3 5.7
2018-Jun-11 22:30N 37°49' W 122°28'3 5.7
2018-Jun-11 22:00N 37°49' W 122°25'0 0.0
2018-Jun-11 21:30N 37°49' W 122°25'0 0.0
2018-Jun-11 21:00N 37°49' W 122°25'3 5.8
2018-Jun-11 20:30N 37°49' W 122°28'3 5.8
2018-Jun-11 20:00N 37°49' W 122°25'1 2.4
2018-Jun-11 19:30N 37°48' W 122°23'2 4.4
2018-Jun-11 19:00N 37°50' W 122°25'1 2.8
2018-Jun-11 18:30N 37°49' W 122°27'2 3.2
2018-Jun-11 18:00N 37°49' W 122°25'0 0.0
2018-Jun-11 03:05N 37°49' W 122°25'0 0.1
2018-Jun-11 03:00N 37°49' W 122°25'3 6.3
2018-Jun-11 02:31N 37°49' W 122°29'  
Track history (hours):
 
Tides and Currents Weather Stations Pressure Air Temp Water Temp Dewpoint Dewpoint Depression Visibility Wind Speed Wind Dir Waves Ship Positions

Old Blue

Owner: Blue and Gold Fleet, San Francisco, CA. More information available from US FCC via Universal Licensing System and Coast Guard Vessel Documentation Center.

Last reported at 2018-Jun-21 02:01 UTC. Time now 2018-Jun-21 04:43 UTC.
Position N 37°49' W 122°25'.

Length 24 m; draft 3 m.

Type: Passenger vessel. MMSI: 366981360.

Date/timePositionNaut miles runAvg speedWind from/ knotsBaromVisibWave heightAir tempDewpointWater temp
2018-Jun-21 02:01N 37°49' W 122°25'0 0.0
2018-Jun-21 01:59N 37°49' W 122°25'3 5.8
2018-Jun-21 01:31N 37°49' W 122°28'3 5.6
2018-Jun-21 01:01N 37°49' W 122°25'1 1.5
2018-Jun-21 00:31N 37°49' W 122°24'2 3.4
2018-Jun-21 00:00N 37°49' W 122°27'2 3.0
2018-Jun-20 23:30N 37°49' W 122°25'0 0.0
2018-Jun-20 23:00N 37°49' W 122°25'3 6.2
2018-Jun-20 22:30N 37°49' W 122°28'3 6.2
2018-Jun-20 22:00N 37°49' W 122°25'0 0.0
2018-Jun-20 21:29N 37°49' W 122°25'0 0.0
2018-Jun-20 20:58N 37°49' W 122°25'3 5.4
2018-Jun-20 20:30N 37°49' W 122°28'3 5.1
2018-Jun-20 20:00N 37°49' W 122°25'1 1.2
2018-Jun-20 19:30N 37°49' W 122°24'2 3.8
2018-Jun-20 19:00N 37°50' W 122°26'2 3.1
2018-Jun-20 18:30N 37°49' W 122°27'2 3.5
2018-Jun-20 17:59N 37°49' W 122°25'0 0.0
2018-Jun-20 02:54N 37°49' W 122°25'2 5.4
2018-Jun-20 02:30N 37°49' W 122°27'2 3.9
2018-Jun-20 01:58N 37°49' W 122°25'0 0.0
2018-Jun-20 01:29N 37°49' W 122°25'3 5.2
2018-Jun-20 01:00N 37°50' W 122°28'3 5.0
2018-Jun-20 00:30N 37°49' W 122°25'0 1.0
2018-Jun-20 00:00N 37°49' W 122°24'2 3.8
2018-Jun-19 23:30N 37°49' W 122°27'2 3.3
2018-Jun-19 22:58N 37°49' W 122°25'0 0.0
2018-Jun-19 22:29N 37°49' W 122°25'1 1.5
2018-Jun-19 22:00N 37°48' W 122°24'2 3.1
2018-Jun-19 21:30N 37°49' W 122°25'1 2.6
2018-Jun-19 21:00N 37°49' W 122°27'2 3.2
2018-Jun-19 20:28N 37°49' W 122°25'0 0.0
2018-Jun-19 19:58N 37°49' W 122°25'2 4.5
2018-Jun-19 19:30N 37°50' W 122°27'2 4.1
2018-Jun-19 18:59N 37°49' W 122°25'1 1.2
2018-Jun-19 18:31N 37°49' W 122°25'2 4.6
2018-Jun-19 18:01N 37°49' W 122°27'2 4.3
2018-Jun-19 17:29N 37°49' W 122°25'0 0.0
2018-Jun-19 17:00N 37°49' W 122°25'0 0.0
2018-Jun-19 02:31N 37°49' W 122°25'0 0.0
2018-Jun-19 02:30N 37°49' W 122°25'2 4.7
2018-Jun-19 02:00N 37°49' W 122°27'2 4.6
2018-Jun-19 01:30N 37°49' W 122°25'0 0.0
2018-Jun-19 01:00N 37°49' W 122°25'0 0.0
2018-Jun-19 00:29N 37°49' W 122°25'1 1.6
2018-Jun-19 00:00N 37°48' W 122°24'2 3.5
2018-Jun-18 23:30N 37°50' W 122°25'1 2.9
2018-Jun-18 23:00N 37°49' W 122°27'2 3.5
2018-Jun-18 22:30N 37°49' W 122°25'3 6.4
2018-Jun-18 22:00N 37°49' W 122°29'3 6.0
2018-Jun-18 21:29N 37°49' W 122°25'0 0.0
2018-Jun-18 20:59N 37°49' W 122°25'0 0.0
2018-Jun-18 20:29N 37°49' W 122°25'3 5.7
2018-Jun-18 20:00N 37°49' W 122°28'3 5.4
2018-Jun-18 19:30N 37°49' W 122°25'0 0.0
2018-Jun-18 02:40N 37°49' W 122°25'0 0.1
2018-Jun-18 02:30N 37°49' W 122°25'2 4.4
2018-Jun-18 02:00N 37°49' W 122°27'2 4.5
2018-Jun-18 01:30N 37°49' W 122°25'0 0.0
2018-Jun-18 01:00N 37°49' W 122°25'0 0.0
2018-Jun-18 00:31N 37°49' W 122°25'1 1.0
2018-Jun-18 00:01N 37°49' W 122°24'1 2.3
2018-Jun-17 23:31N 37°49' W 122°25'1 2.7
2018-Jun-17 23:00N 37°49' W 122°27'2 3.3
2018-Jun-17 22:30N 37°49' W 122°25'3 6.2
2018-Jun-17 22:00N 37°49' W 122°28'3 6.3
2018-Jun-17 21:30N 37°49' W 122°25'0 0.0
2018-Jun-17 21:01N 37°49' W 122°25'0 0.0
2018-Jun-17 20:31N 37°49' W 122°25'3 5.6
2018-Jun-17 20:00N 37°49' W 122°28'3 5.6
2018-Jun-17 19:30N 37°49' W 122°25'0 0.0
2018-Jun-17 19:00N 37°49' W 122°25'0 0.0
2018-Jun-17 02:59N 37°49' W 122°25'2 4.8
2018-Jun-17 02:30N 37°49' W 122°27'2 4.7
2018-Jun-17 02:00N 37°49' W 122°25'0 0.0
2018-Jun-17 01:30N 37°49' W 122°25'3 5.3
2018-Jun-17 01:00N 37°49' W 122°28'3 5.4
2018-Jun-17 00:30N 37°49' W 122°25'1 1.8
2018-Jun-17 00:00N 37°49' W 122°25'1 2.7
2018-Jun-16 23:30N 37°49' W 122°27'2 3.5
2018-Jun-16 23:01N 37°49' W 122°25'0 0.0
2018-Jun-16 22:30N 37°49' W 122°25'1 1.1
2018-Jun-16 22:01N 37°49' W 122°24'1 2.5
2018-Jun-16 21:30N 37°50' W 122°25'1 2.1
2018-Jun-16 21:00N 37°49' W 122°26'2 3.0
2018-Jun-16 20:30N 37°49' W 122°25'0 0.0
2018-Jun-16 20:00N 37°49' W 122°25'3 6.4
2018-Jun-16 19:30N 37°49' W 122°29'3 6.4
2018-Jun-16 19:00N 37°49' W 122°25'1 2.1
2018-Jun-16 18:30N 37°50' W 122°25'2 3.1
2018-Jun-16 18:00N 37°49' W 122°27'2 3.1
2018-Jun-16 17:30N 37°49' W 122°25'0 0.0
2018-Jun-16 02:25N 37°49' W 122°25'2 5.6
2018-Jun-16 02:00N 37°50' W 122°27'2 4.5
2018-Jun-16 01:29N 37°49' W 122°25'0 0.0
2018-Jun-16 01:00N 37°49' W 122°25'0 0.0
2018-Jun-16 00:28N 37°49' W 122°25'1 1.6
2018-Jun-16 00:00N 37°48' W 122°24'2 3.7
2018-Jun-15 23:30N 37°50' W 122°25'1 2.4
2018-Jun-15 23:00N 37°49' W 122°27'2 3.2
2018-Jun-15 22:30N 37°49' W 122°25'3 5.8
2018-Jun-15 22:00N 37°49' W 122°28'3 5.6
2018-Jun-15 21:30N 37°49' W 122°25'0 0.0
2018-Jun-15 21:00N 37°49' W 122°25'0 0.0
2018-Jun-15 20:28N 37°49' W 122°25'3 6.9
2018-Jun-15 20:00N 37°49' W 122°29'3 6.0
2018-Jun-15 19:29N 37°49' W 122°25'0 0.0
2018-Jun-15 01:59N 37°49' W 122°25'2 5.0
2018-Jun-15 01:30N 37°50' W 122°27'2 4.1
2018-Jun-15 00:56N 37°49' W 122°25'1 2.4
2018-Jun-15 00:30N 37°50' W 122°25'2 4.2
2018-Jun-15 00:01N 37°49' W 122°27'2 4.0
2018-Jun-14 23:29N 37°49' W 122°25'0 0.0
2018-Jun-14 22:58N 37°49' W 122°25'2 5.2
2018-Jun-14 22:30N 37°50' W 122°27'2 4.5
2018-Jun-14 21:58N 37°49' W 122°25'0 0.0
2018-Jun-14 21:30N 37°49' W 122°25'0 0.0
2018-Jun-14 21:00N 37°49' W 122°25'3 6.4
2018-Jun-14 20:30N 37°49' W 122°29'3 6.2
2018-Jun-14 19:59N 37°49' W 122°25'1 1.1
2018-Jun-14 19:30N 37°49' W 122°24'2 3.5
2018-Jun-14 19:00N 37°50' W 122°25'2 3.2
2018-Jun-14 18:30N 37°49' W 122°27'2 2.9
2018-Jun-14 17:58N 37°49' W 122°25'0 0.0
2018-Jun-14 17:28N 37°49' W 122°25'0 0.0
2018-Jun-14 16:59N 37°49' W 122°25'0 0.0
2018-Jun-14 16:29N 37°49' W 122°25'0 0.0
2018-Jun-14 15:58N 37°49' W 122°25'0 0.0
2018-Jun-14 15:28N 37°49' W 122°25'0 0.0
2018-Jun-14 02:54N 37°49' W 122°25'2 6.3
2018-Jun-14 02:30N 37°49' W 122°28'2 4.7
2018-Jun-14 01:59N 37°49' W 122°25'0 0.0
2018-Jun-14 01:30N 37°49' W 122°25'2 3.8
2018-Jun-14 01:00N 37°50' W 122°27'2 3.8
2018-Jun-14 00:30N 37°49' W 122°25'0 0.9
2018-Jun-14 00:00N 37°49' W 122°24'2 4.9
2018-Jun-13 23:30N 37°49' W 122°27'2 4.5
2018-Jun-13 23:00N 37°49' W 122°25'0 0.0
2018-Jun-13 22:30N 37°49' W 122°25'1 1.1
2018-Jun-13 22:00N 37°48' W 122°24'2 3.0
2018-Jun-13 21:30N 37°49' W 122°25'2 3.1
2018-Jun-13 21:00N 37°49' W 122°27'2 4.3
2018-Jun-13 20:30N 37°49' W 122°25'0 0.0
2018-Jun-13 20:00N 37°49' W 122°25'2 4.8
2018-Jun-13 19:30N 37°49' W 122°27'2 4.6
2018-Jun-13 19:00N 37°49' W 122°25'1 1.3
2018-Jun-13 18:31N 37°49' W 122°25'1 3.0
2018-Jun-13 18:00N 37°49' W 122°27'2 3.2
2018-Jun-13 17:31N 37°49' W 122°25'0 0.0
2018-Jun-13 02:09N 37°49' W 122°25'0 0.0
2018-Jun-13 02:00N 37°49' W 122°25'3 5.3
2018-Jun-13 01:30N 37°49' W 122°28'3 5.4
2018-Jun-13 01:00N 37°49' W 122°25'0 0.2
2018-Jun-13 00:30N 37°49' W 122°25'2 3.4
2018-Jun-13 00:00N 37°50' W 122°26'1 2.1
2018-Jun-12 23:30N 37°49' W 122°25'1 1.5
2018-Jun-12 23:00N 37°49' W 122°25'2 4.9
2018-Jun-12 22:30N 37°50' W 122°27'2 4.8
2018-Jun-12 22:00N 37°49' W 122°25'0 0.0
2018-Jun-12 21:30N 37°49' W 122°25'0 0.0
2018-Jun-12 20:59N 37°49' W 122°25'2 5.1
2018-Jun-12 20:30N 37°50' W 122°28'2 4.7
2018-Jun-12 19:59N 37°49' W 122°25'1 1.7
2018-Jun-12 19:30N 37°48' W 122°24'2 3.5
2018-Jun-12 19:00N 37°50' W 122°25'1 2.7
2018-Jun-12 18:30N 37°49' W 122°27'2 3.6
2018-Jun-12 18:00N 37°49' W 122°25'0 0.0
2018-Jun-12 02:14N 37°49' W 122°25'0 0.2
2018-Jun-12 02:01N 37°49' W 122°25'3 6.1
2018-Jun-12 01:31N 37°49' W 122°28'3 6.0
2018-Jun-12 01:00N 37°49' W 122°25'1 2.8
2018-Jun-12 00:31N 37°50' W 122°25'1 2.7
2018-Jun-12 00:00N 37°49' W 122°27'1 3.0
2018-Jun-11 23:30N 37°49' W 122°25'0 0.0
2018-Jun-11 23:00N 37°49' W 122°25'3 5.7
2018-Jun-11 22:30N 37°49' W 122°28'3 5.7
2018-Jun-11 22:00N 37°49' W 122°25'0 0.0
2018-Jun-11 21:30N 37°49' W 122°25'0 0.0
2018-Jun-11 21:00N 37°49' W 122°25'3 5.8
2018-Jun-11 20:30N 37°49' W 122°28'3 5.8
2018-Jun-11 20:00N 37°49' W 122°25'1 2.4
2018-Jun-11 19:30N 37°48' W 122°23'2 4.4
2018-Jun-11 19:00N 37°50' W 122°25'1 2.8
2018-Jun-11 18:30N 37°49' W 122°27'2 3.2
2018-Jun-11 18:00N 37°49' W 122°25'0 0.0
2018-Jun-11 03:05N 37°49' W 122°25'0 0.1
2018-Jun-11 03:00N 37°49' W 122°25'3 6.3
2018-Jun-11 02:31N 37°49' W 122°29'  

Dump ship's entire track history